Time;durP1;ratioP1;P1;durP2;ratioP2;P2;SDS_P1;SDS_P2;PMS_P1;PMS_P2;Temp;Humidity;BMP_temperature;BMP_pressure;BME280_temperature;BME280_humidity;BME280_pressure;Samples;Min_cycle;Max_cycle;Signal;HPM_P1;HPM_P2
2022/01/11 00:00:27;;;;;;;22.25;16.63;;;-0.30;99.90;;;;;;5118281;27;20035;-67
2022/01/11 00:02:54;;;;;;;21.58;16.50;;;-0.30;99.90;;;;;;5116774;27;20153;-66
2022/01/11 00:05:33;;;;;;;25.15;16.52;;;-0.40;99.90;;;;;;5116529;27;20133;-67
2022/01/11 00:07:59;;;;;;;23.42;16.20;;;-0.40;99.90;;;;;;5116908;27;20099;-67
2022/01/11 00:10:36;;;;;;;21.15;16.23;;;-0.40;99.90;;;;;;5135679;27;20039;-67
2022/01/11 00:13:02;;;;;;;23.73;16.63;;;-0.40;99.90;;;;;;5137540;27;20043;-66
2022/01/11 00:15:29;;;;;;;24.73;17.23;;;-0.40;99.90;;;;;;5154958;27;20467;-66
2022/01/11 00:17:57;;;;;;;23.98;16.80;;;-0.40;99.90;;;;;;5137109;27;20145;-67
2022/01/11 00:20:24;;;;;;;25.70;16.23;;;-0.50;99.90;;;;;;5154409;27;20371;-67
2022/01/11 00:25:30;;;;;;;28.83;18.33;;;-0.40;99.90;;;;;;5116282;27;20043;-67
2022/01/11 00:27:57;;;;;;;26.20;18.08;;;-0.50;99.90;;;;;;5134751;27;20078;-67
2022/01/11 00:30:24;;;;;;;27.50;19.15;;;-0.50;99.90;;;;;;5135065;27;20035;-66
2022/01/11 00:32:54;;;;;;;28.33;19.38;;;-0.50;99.90;;;;;;5155473;27;20031;-67
2022/01/11 00:35:27;;;;;;;26.83;18.55;;;-0.50;99.90;;;;;;5136456;27;20082;-68
2022/01/11 00:37:56;;;;;;;30.38;18.20;;;-0.60;99.90;;;;;;5155630;27;20042;-67
2022/01/11 00:40:22;;;;;;;32.17;18.88;;;-0.60;99.90;;;;;;5154708;27;20034;-67
2022/01/11 00:42:48;;;;;;;26.25;18.23;;;-0.50;99.90;;;;;;5116207;27;20042;-67
2022/01/11 00:45:13;;;;;;;29.05;17.92;;;-0.60;99.90;;;;;;5116036;27;20436;-68
2022/01/11 00:47:40;;;;;;;26.38;18.15;;;-0.50;99.90;;;;;;5115899;27;20051;-67
2022/01/11 00:50:08;;;;;;;25.50;18.08;;;-0.50;99.90;;;;;;5116460;27;20486;-66
2022/01/11 00:52:34;;;;;;;28.60;19.10;;;-0.50;99.90;;;;;;5153450;27;20114;-67
2022/01/11 00:55:00;;;;;;;31.58;19.05;;;-0.50;99.90;;;;;;5136180;27;20138;-67
2022/01/11 00:57:26;;;;;;;29.95;19.50;;;-0.50;99.90;;;;;;5119301;27;20129;-66
2022/01/11 00:59:53;;;;;;;32.63;19.33;;;-0.50;99.90;;;;;;5154919;27;20038;-68
2022/01/11 01:02:20;;;;;;;28.52;18.48;;;-0.50;99.90;;;;;;5119325;27;20158;-66
2022/01/11 01:04:46;;;;;;;30.65;18.10;;;-0.50;99.90;;;;;;5115959;27;20141;-66
2022/01/11 01:07:12;;;;;;;28.98;17.40;;;-0.50;99.90;;;;;;5116324;28;20423;-67
2022/01/11 01:09:54;;;;;;;30.42;19.38;;;-0.50;99.90;;;;;;5116066;27;20552;-67
2022/01/11 01:12:20;;;;;;;30.48;17.27;;;-0.50;99.90;;;;;;5117613;27;20046;-67
2022/01/11 01:14:45;;;;;;;31.27;19.52;;;-0.50;99.90;;;;;;5135825;27;20046;-67
2022/01/11 01:17:14;;;;;;;34.25;20.00;;;-0.50;99.90;;;;;;5154813;27;20042;-68
2022/01/11 01:19:39;;;;;;;28.42;18.27;;;-0.50;99.90;;;;;;5154960;27;20265;-67
2022/01/11 01:22:05;;;;;;;30.70;17.95;;;-0.50;99.90;;;;;;5121772;28;20047;-68
2022/01/11 01:24:31;;;;;;;25.08;17.65;;;-0.50;99.90;;;;;;5115730;28;20377;-68
2022/01/11 01:26:56;;;;;;;30.25;18.90;;;-0.50;99.90;;;;;;5115370;28;20027;-67
2022/01/11 01:29:22;;;;;;;29.35;19.42;;;-0.50;99.90;;;;;;5115711;28;20099;-68
2022/01/11 01:31:48;;;;;;;31.33;20.35;;;-0.40;99.90;;;;;;5134782;27;20036;-68
2022/01/11 01:34:13;;;;;;;31.52;20.13;;;-0.40;99.90;;;;;;5115666;28;20039;-66
2022/01/11 01:36:39;;;;;;;27.02;17.65;;;-0.40;99.90;;;;;;5098489;28;20057;-66
2022/01/11 01:39:05;;;;;;;30.75;19.13;;;-0.40;99.90;;;;;;5116094;28;20043;-66
2022/01/11 01:41:31;;;;;;;28.33;17.73;;;-0.40;99.90;;;;;;5125015;27;20350;-68
2022/01/11 01:44:00;;;;;;;29.52;18.63;;;-0.40;99.90;;;;;;5136133;27;20039;-66
2022/01/11 01:46:26;;;;;;;29.83;17.95;;;-0.40;99.90;;;;;;5135488;27;20159;-67
2022/01/11 01:48:55;;;;;;;34.65;19.05;;;-0.40;99.90;;;;;;5136109;27;20507;-68
2022/01/11 01:51:20;;;;;;;31.70;18.13;;;-0.40;99.90;;;;;;5128036;28;20486;-67
2022/01/11 01:53:48;;;;;;;27.27;18.15;;;-0.40;99.90;;;;;;5115315;28;20070;-67
2022/01/11 01:56:16;;;;;;;35.45;19.77;;;-0.40;99.90;;;;;;5115282;28;20074;-67
2022/01/11 01:58:42;;;;;;;32.25;18.38;;;-0.50;99.90;;;;;;5115445;28;20368;-67
2022/01/11 02:01:08;;;;;;;31.90;18.05;;;-0.50;99.90;;;;;;5121388;27;20068;-67
2022/01/11 02:03:40;;;;;;;27.95;17.80;;;-0.40;99.90;;;;;;5119172;27;20035;-67
2022/01/11 02:06:15;;;;;;;28.23;17.95;;;-0.40;99.90;;;;;;5135506;27;20131;-68
2022/01/11 02:08:44;;;;;;;32.15;19.65;;;-0.50;99.90;;;;;;5135917;27;20038;-66
2022/01/11 02:11:10;;;;;;;31.38;18.73;;;-0.50;99.90;;;;;;5147975;27;20039;-66
2022/01/11 02:13:36;;;;;;;35.05;19.45;;;-0.50;99.90;;;;;;5133545;28;20031;-67
2022/01/11 02:16:04;;;;;;;31.85;18.80;;;-0.50;99.90;;;;;;5094375;28;20051;-65
2022/01/11 02:18:30;;;;;;;33.40;19.30;;;-0.50;99.90;;;;;;5111574;28;20088;-66
2022/01/11 02:20:58;;;;;;;32.85;17.33;;;-0.50;99.90;;;;;;5115805;28;20072;-67
2022/01/11 02:23:28;;;;;;;33.80;19.58;;;-0.50;99.90;;;;;;5115633;27;20111;-67
2022/01/11 02:25:56;;;;;;;38.63;21.83;;;-0.50;99.90;;;;;;5136653;27;20050;-67
2022/01/11 02:28:23;;;;;;;45.90;22.05;;;-0.60;99.90;;;;;;5118687;27;20069;-68
2022/01/11 02:30:51;;;;;;;69.82;22.08;;;-0.60;99.90;;;;;;5115091;27;20046;-66
2022/01/11 02:33:32;;;;;;;71.22;25.15;;;-0.70;99.90;;;;;;5098460;28;20484;-67
2022/01/11 02:36:10;;;;;;;64.53;24.67;;;-0.70;99.90;;;;;;5098080;28;20168;-66
2022/01/11 02:38:36;;;;;;;73.63;25.08;;;-0.80;99.90;;;;;;5098187;28;20372;-66
2022/01/11 02:41:03;;;;;;;71.47;24.92;;;-0.80;99.90;;;;;;5103142;27;20470;-66
2022/01/11 02:43:32;;;;;;;57.70;23.65;;;-0.30;99.90;;;;;;5136715;27;20039;-67
2022/01/11 02:46:01;;;;;;;60.22;24.77;;;-0.80;99.90;;;;;;5136250;27;20091;-67
2022/01/11 02:48:28;;;;;;;50.92;23.58;;;-0.80;99.90;;;;;;5118352;27;20356;-67
2022/01/11 02:50:54;;;;;;;50.92;24.65;;;-0.80;99.90;;;;;;5114391;28;20062;-67
2022/01/11 02:53:20;;;;;;;46.47;22.80;;;-0.80;99.90;;;;;;5081207;28;20101;-67
2022/01/11 02:55:46;;;;;;;45.95;21.50;;;-0.70;99.90;;;;;;5097649;28;20501;-67
2022/01/11 02:58:13;;;;;;;39.78;21.88;;;-0.70;99.90;;;;;;5115614;28;20436;-67
2022/01/11 03:00:39;;;;;;;40.60;22.13;;;-0.60;99.90;;;;;;5098849;27;20039;-66
2022/01/11 03:03:31;;;;;;;45.30;23.42;;;-0.60;99.90;;;;;;5118291;27;20418;-67
2022/01/11 03:06:01;;;;;;;43.95;23.23;;;-0.60;99.90;;;;;;5113690;27;20066;-67
2022/01/11 03:08:30;;;;;;;43.95;22.52;;;-0.50;99.90;;;;;;5118141;27;20043;-66
2022/01/11 03:10:56;;;;;;;44.72;23.05;;;-0.50;99.90;;;;;;5114234;28;20360;-67
2022/01/11 03:13:22;;;;;;;43.83;22.45;;;-0.50;99.90;;;;;;5097527;28;20047;-67
2022/01/11 03:15:49;;;;;;;44.63;23.15;;;-0.40;99.90;;;;;;5108367;27;20054;-68
2022/01/11 03:18:17;;;;;;;37.72;20.67;;;-0.50;99.90;;;;;;5118279;27;20130;-67
2022/01/11 03:20:45;;;;;;;42.13;22.10;;;-0.40;99.90;;;;;;5137745;27;20043;-67
2022/01/11 03:23:12;;;;;;;51.63;23.70;;;-0.50;99.90;;;;;;5156873;27;20470;-66
2022/01/11 03:25:38;;;;;;;49.30;23.08;;;-0.50;99.90;;;;;;5120759;27;20103;-67
2022/01/11 03:28:04;;;;;;;49.22;23.02;;;-0.50;99.90;;;;;;5157125;27;20034;-66
2022/01/11 03:30:32;;;;;;;52.35;27.42;;;-0.50;99.90;;;;;;5137374;27;20042;-65
2022/01/11 03:32:57;;;;;;;50.70;24.48;;;-0.40;99.90;;;;;;5135689;27;20046;-67
2022/01/11 03:35:24;;;;;;;53.42;25.73;;;-0.50;99.90;;;;;;5100348;27;20055;-66
2022/01/11 03:37:53;;;;;;;56.03;24.48;;;-0.40;99.90;;;;;;5135946;27;20049;-67
2022/01/11 03:40:22;;;;;;;52.35;23.67;;;-0.50;99.90;;;;;;5135999;27;20121;-67
2022/01/11 03:42:48;;;;;;;45.65;23.40;;;-0.50;99.90;;;;;;5155073;27;20359;-67
2022/01/11 03:45:15;;;;;;;45.08;22.38;;;-0.40;99.90;;;;;;5137567;27;20053;-67
2022/01/11 03:47:40;;;;;;;46.10;23.48;;;-0.40;99.90;;;;;;5137832;27;20046;-67
2022/01/11 03:50:08;;;;;;;42.42;22.80;;;-0.50;99.90;;;;;;5156594;27;20031;-67
2022/01/11 03:52:34;;;;;;;42.33;22.42;;;-0.40;99.90;;;;;;5120125;27;20082;-67
2022/01/11 03:55:06;;;;;;;43.50;21.60;;;-0.50;99.90;;;;;;5116878;27;20184;-67
2022/01/11 03:57:32;;;;;;;44.75;21.75;;;-0.50;99.90;;;;;;5117076;27;20364;-67
2022/01/11 04:00:02;;;;;;;48.38;23.35;;;-0.50;99.90;;;;;;5117114;27;20043;-67
2022/01/11 04:02:28;;;;;;;42.13;21.95;;;-0.50;99.90;;;;;;5135853;27;20047;-67
2022/01/11 04:04:54;;;;;;;49.30;23.00;;;-0.50;99.90;;;;;;5134590;27;20068;-69
2022/01/11 04:07:25;;;;;;;40.38;21.08;;;-0.50;99.90;;;;;;5116743;27;20046;-67
2022/01/11 04:09:53;;;;;;;42.95;21.65;;;-0.50;99.90;;;;;;5134555;27;20051;-66
2022/01/11 04:12:19;;;;;;;40.97;21.48;;;-0.50;99.90;;;;;;5131570;27;20067;-66
2022/01/11 04:14:45;;;;;;;38.00;20.58;;;-0.40;99.90;;;;;;5137252;27;20077;-67
2022/01/11 04:17:11;;;;;;;41.05;21.48;;;-0.50;99.90;;;;;;5137175;27;20134;-66
2022/01/11 04:19:36;;;;;;;42.00;22.15;;;-0.50;99.90;;;;;;5155779;27;20422;-66
2022/01/11 04:22:03;;;;;;;37.97;22.17;;;-0.40;99.90;;;;;;5142965;27;20043;-68
2022/01/11 04:24:32;;;;;;;43.78;23.05;;;-0.50;99.90;;;;;;5134315;27;20459;-67
2022/01/11 04:26:57;;;;;;;38.58;21.80;;;-0.50;99.90;;;;;;5116699;27;20031;-68
2022/01/11 04:29:23;;;;;;;35.47;20.90;;;-0.50;99.90;;;;;;5116553;27;20043;-68
2022/01/11 04:31:49;;;;;;;37.13;21.08;;;-0.50;99.90;;;;;;5145302;27;20113;-68
2022/01/11 04:34:15;;;;;;;39.55;21.42;;;-0.60;99.90;;;;;;5137150;27;20423;-68
2022/01/11 04:36:44;;;;;;;36.05;21.00;;;-0.60;99.90;;;;;;5155624;27;20125;-68
2022/01/11 04:39:12;;;;;;;40.72;21.17;;;-0.60;99.90;;;;;;5155544;27;20125;-67
2022/01/11 04:41:38;;;;;;;39.38;21.02;;;-0.60;99.90;;;;;;5110702;27;20043;-68
2022/01/11 04:44:04;;;;;;;36.47;21.02;;;-0.60;99.90;;;;;;5116419;27;20074;-68
2022/01/11 04:46:30;;;;;;;35.70;20.33;;;-0.70;99.90;;;;;;5115418;27;20424;-68
2022/01/11 04:48:58;;;;;;;43.13;21.67;;;-0.60;99.90;;;;;;5116225;28;20045;-67
2022/01/11 04:51:24;;;;;;;38.15;20.67;;;-0.60;99.90;;;;;;5106032;27;20217;-67
2022/01/11 04:53:50;;;;;;;38.83;20.60;;;-0.60;99.90;;;;;;5155115;27;20050;-67
2022/01/11 04:56:16;;;;;;;36.35;21.30;;;-0.60;99.90;;;;;;5119087;27;20043;-67
2022/01/11 04:58:42;;;;;;;35.25;21.27;;;-0.60;99.90;;;;;;5155200;27;20038;-67
2022/01/11 05:01:07;;;;;;;34.55;19.60;;;-0.60;99.90;;;;;;5131838;27;20039;-67
2022/01/11 05:03:33;;;;;;;35.13;18.90;;;-0.60;99.90;;;;;;5099398;27;20023;-68
2022/01/11 05:05:59;;;;;;;35.00;20.05;;;-0.60;99.90;;;;;;5115782;27;20547;-66
2022/01/11 05:08:24;;;;;;;35.03;19.45;;;-0.60;99.90;;;;;;5116372;27;20031;-68
2022/01/11 05:10:50;;;;;;;32.70;18.92;;;-0.60;99.90;;;;;;5136298;27;21494;-67
2022/01/11 05:13:18;;;;;;;32.30;18.27;;;-0.50;99.90;;;;;;5119720;27;20437;-67
2022/01/11 05:15:44;;;;;;;31.98;18.90;;;-0.50;99.90;;;;;;5154089;27;20062;-68
2022/01/11 05:18:11;;;;;;;33.75;18.45;;;-0.50;99.90;;;;;;5136626;27;20492;-67
2022/01/11 05:20:38;;;;;;;34.42;19.23;;;-0.50;99.90;;;;;;5119113;27;20465;-68
2022/01/11 05:23:04;;;;;;;30.73;18.27;;;-0.50;99.90;;;;;;5134031;27;20035;-68
2022/01/11 05:25:31;;;;;;;34.15;19.10;;;-0.50;99.90;;;;;;5133982;27;20112;-67
2022/01/11 05:27:59;;;;;;;34.25;19.25;;;-0.50;99.90;;;;;;5134004;27;20035;-68
2022/01/11 05:30:25;;;;;;;30.98;18.67;;;-0.50;99.90;;;;;;5115945;28;20066;-67
2022/01/11 05:32:51;;;;;;;34.33;18.90;;;-0.50;99.90;;;;;;5134478;27;20447;-68
2022/01/11 05:35:17;;;;;;;34.15;19.30;;;-0.60;99.90;;;;;;5154478;27;20049;-67
2022/01/11 05:37:43;;;;;;;34.22;19.63;;;-0.60;99.90;;;;;;5154834;27;20059;-67
2022/01/11 05:40:13;;;;;;;35.58;19.38;;;-0.60;99.90;;;;;;5154835;27;20080;-67
2022/01/11 05:42:42;;;;;;;29.40;18.15;;;-0.70;99.90;;;;;;5118730;28;20071;-68
2022/01/11 05:45:09;;;;;;;30.60;17.90;;;-0.60;99.90;;;;;;5115350;28;20100;-68
2022/01/11 05:47:35;;;;;;;30.23;18.02;;;-0.60;99.90;;;;;;5133872;28;20057;-68
2022/01/11 05:50:03;;;;;;;32.47;17.77;;;-0.70;99.90;;;;;;5115344;28;20031;-67
2022/01/11 05:52:29;;;;;;;28.65;17.00;;;-0.70;99.90;;;;;;5126249;27;20118;-68
2022/01/11 05:54:55;;;;;;;30.67;17.40;;;-0.70;99.90;;;;;;5114392;28;20121;-68
2022/01/11 05:57:21;;;;;;;30.95;18.33;;;-0.70;99.90;;;;;;5115208;27;20100;-67
2022/01/11 05:59:48;;;;;;;33.85;19.35;;;-0.70;99.90;;;;;;5138621;27;20115;-68
2022/01/11 06:02:14;;;;;;;31.02;18.23;;;-0.80;99.90;;;;;;5137267;27;20042;-66
2022/01/11 06:04:40;;;;;;;32.30;18.02;;;-0.80;99.90;;;;;;5157544;27;20788;-67
2022/01/11 06:07:05;;;;;;;34.03;18.65;;;-0.80;99.90;;;;;;5139400;27;20046;-67
2022/01/11 06:09:31;;;;;;;33.78;18.45;;;-0.90;99.90;;;;;;5122624;27;20042;-67
2022/01/11 06:11:57;;;;;;;32.05;18.65;;;-0.90;99.90;;;;;;5156999;27;20522;-69
2022/01/11 06:14:23;;;;;;;27.98;17.38;;;-0.90;99.90;;;;;;5139145;27;20046;-68
2022/01/11 06:16:48;;;;;;;31.55;18.10;;;-0.90;99.90;;;;;;5139305;27;20058;-69
2022/01/11 06:19:14;;;;;;;29.60;17.38;;;-1.00;99.90;;;;;;5139557;27;20093;-68
2022/01/11 06:21:40;;;;;;;32.55;18.30;;;-0.90;99.90;;;;;;5137921;27;20038;-67
2022/01/11 06:24:07;;;;;;;31.70;17.58;;;-1.00;99.90;;;;;;5133410;27;20043;-68
2022/01/11 06:26:33;;;;;;;30.65;17.98;;;-1.00;99.90;;;;;;5139614;27;20080;-67
2022/01/11 06:29:00;;;;;;;32.58;18.38;;;-1.00;99.90;;;;;;5158053;27;20050;-67
2022/01/11 06:31:26;;;;;;;32.60;18.92;;;-1.00;99.90;;;;;;5115223;27;20031;-67
2022/01/11 06:33:54;;;;;;;32.28;18.52;;;-0.90;99.90;;;;;;5123861;27;20030;-67
2022/01/11 06:36:20;;;;;;;37.53;19.60;;;-0.90;99.90;;;;;;5157727;27;20038;-69
2022/01/11 06:38:46;;;;;;;31.70;18.27;;;-0.90;99.90;;;;;;5157823;27;20178;-68
2022/01/11 06:41:12;;;;;;;36.05;19.00;;;-0.90;99.90;;;;;;5156823;27;20034;-68
2022/01/11 06:43:38;;;;;;;36.88;18.30;;;-0.90;99.90;;;;;;5158090;27;20122;-68
2022/01/11 06:46:07;;;;;;;38.08;19.52;;;-0.90;99.90;;;;;;5156264;27;20082;-67
2022/01/11 06:48:33;;;;;;;35.30;19.48;;;-0.80;99.90;;;;;;5139201;27;20356;-67
2022/01/11 06:50:59;;;;;;;41.75;21.15;;;-0.80;99.90;;;;;;5138362;27;20069;-68
2022/01/11 06:53:28;;;;;;;57.95;20.73;;;-0.80;99.90;;;;;;5138986;27;20062;-70
2022/01/11 06:55:55;;;;;;;44.90;21.35;;;-0.80;99.90;;;;;;5138795;27;20038;-68
2022/01/11 06:58:21;;;;;;;36.20;19.40;;;-0.80;99.90;;;;;;5137889;27;20431;-69
2022/01/11 07:00:47;;;;;;;41.42;21.75;;;-0.80;99.90;;;;;;5137262;27;20034;-68
2022/01/11 07:03:13;;;;;;;34.50;19.33;;;-0.80;99.90;;;;;;5138789;27;20049;-68
2022/01/11 07:05:38;;;;;;;32.85;19.67;;;-0.80;99.90;;;;;;5141209;27;20038;-67
2022/01/11 07:08:04;;;;;;;32.05;18.70;;;-0.80;99.90;;;;;;5138114;27;20046;-67
2022/01/11 07:10:30;;;;;;;36.22;20.35;;;-0.70;99.90;;;;;;5140171;27;20059;-68
2022/01/11 07:12:57;;;;;;;36.47;20.13;;;-0.70;99.90;;;;;;5132262;27;20070;-70
2022/01/11 07:15:24;;;;;;;50.58;21.02;;;-0.70;99.90;;;;;;5141977;27;20074;-67
2022/01/11 07:17:49;;;;;;;38.20;21.13;;;-0.70;99.90;;;;;;5150507;27;20043;-67
2022/01/11 07:20:15;;;;;;;58.60;23.40;;;-0.60;99.90;;;;;;5138187;27;20031;-67
2022/01/11 07:22:41;;;;;;;43.47;21.70;;;-0.70;99.90;;;;;;5139292;27;20056;-69
2022/01/11 07:25:07;;;;;;;35.08;20.10;;;-0.70;99.90;;;;;;5156165;27;20133;-68
2022/01/11 07:27:34;;;;;;;36.75;19.63;;;-0.60;99.90;;;;;;5138402;27;20110;-68
2022/01/11 07:30:01;;;;;;;38.10;21.50;;;-0.70;99.90;;;;;;5156708;27;20050;-67
2022/01/11 07:32:26;;;;;;;50.25;23.85;;;-0.70;99.90;;;;;;5141755;27;20039;-68
2022/01/11 07:34:52;;;;;;;42.20;22.45;;;-0.70;99.90;;;;;;5149593;27;20470;-67
2022/01/11 07:37:18;;;;;;;41.50;22.80;;;-0.60;99.90;;;;;;5156682;27;20046;-67
2022/01/11 07:39:44;;;;;;;50.13;23.75;;;-0.60;99.90;;;;;;5156635;27;20042;-66
2022/01/11 07:42:10;;;;;;;39.42;21.98;;;-0.60;99.90;;;;;;5125676;27;20133;-67
2022/01/11 07:44:35;;;;;;;51.20;24.92;;;-0.60;99.90;;;;;;5132520;27;20046;-68
2022/01/11 07:47:03;;;;;;;45.83;23.48;;;-0.60;99.90;;;;;;5156161;27;20198;-67
2022/01/11 07:49:29;;;;;;;43.30;23.15;;;-0.60;99.90;;;;;;5156105;27;20728;-68
2022/01/11 07:51:56;;;;;;;54.85;24.80;;;-0.50;99.90;;;;;;5141683;27;20027;-67
2022/01/11 07:54:21;;;;;;;56.13;26.13;;;-0.50;99.90;;;;;;5134792;27;20536;-67
2022/01/11 07:56:47;;;;;;;53.75;25.10;;;-0.40;99.90;;;;;;5135374;27;20075;-68
2022/01/11 07:59:13;;;;;;;58.97;26.30;;;-0.40;99.90;;;;;;5135374;27;20328;-68
2022/01/11 08:01:40;;;;;;;52.70;26.13;;;-0.40;99.90;;;;;;5124443;27;20469;-68
2022/01/11 08:04:06;;;;;;;55.30;26.63;;;-0.40;99.90;;;;;;5137143;27;20124;-66
2022/01/11 08:06:33;;;;;;;57.55;27.05;;;-0.40;99.90;;;;;;5137391;27;20038;-67
2022/01/11 08:09:02;;;;;;;59.03;28.00;;;-0.40;99.90;;;;;;5137519;27;20146;-67
2022/01/11 08:11:28;;;;;;;52.33;27.20;;;-0.40;99.90;;;;;;5154383;27;20052;-67
2022/01/11 08:13:54;;;;;;;54.03;27.98;;;-0.30;99.90;;;;;;5155295;27;20494;-68
2022/01/11 08:16:20;;;;;;;57.65;27.80;;;-0.30;99.90;;;;;;5118343;27;20082;-68
2022/01/11 08:18:45;;;;;;;52.97;27.25;;;-0.30;99.90;;;;;;5135463;27;20068;-68
2022/01/11 08:21:11;;;;;;;55.38;27.77;;;-0.20;99.90;;;;;;5138331;27;20162;-67
2022/01/11 08:23:37;;;;;;;50.45;28.02;;;-0.20;99.90;;;;;;5135644;27;20070;-67
2022/01/11 08:26:03;;;;;;;54.10;28.30;;;-0.10;99.90;;;;;;5155144;27;20083;-67
2022/01/11 08:28:29;;;;;;;52.92;27.95;;;-0.10;99.90;;;;;;5136175;27;20073;-68
2022/01/11 08:30:57;;;;;;;52.13;27.77;;;0.00;99.90;;;;;;5117534;27;20039;-67
2022/01/11 08:33:23;;;;;;;52.30;28.80;;;0.00;99.90;;;;;;5137092;27;20046;-67
2022/01/11 08:35:49;;;;;;;57.95;30.02;;;0.10;99.90;;;;;;5155089;27;20051;-69
2022/01/11 08:38:15;;;;;;;55.20;29.05;;;0.10;99.90;;;;;;5154974;27;20054;-68
2022/01/11 08:40:41;;;;;;;50.58;28.20;;;0.10;99.90;;;;;;5136938;27;20046;-66
2022/01/11 08:43:06;;;;;;;46.72;28.08;;;0.20;99.90;;;;;;5117058;27;20067;-67
2022/01/11 08:45:33;;;;;;;52.13;28.15;;;0.20;99.90;;;;;;5135167;27;20035;-67
2022/01/11 08:47:59;;;;;;;50.33;27.38;;;0.20;99.90;;;;;;5154700;27;20465;-67
2022/01/11 08:50:25;;;;;;;53.33;29.42;;;0.30;99.90;;;;;;5154818;27;20038;-67
2022/01/11 08:52:51;;;;;;;48.45;27.65;;;0.30;99.90;;;;;;5154170;27;20343;-65
2022/01/11 08:55:17;;;;;;;53.88;28.58;;;0.30;99.90;;;;;;5154380;27;20074;-66
2022/01/11 08:57:44;;;;;;;54.78;28.30;;;0.40;99.90;;;;;;5154877;27;20362;-67
2022/01/11 09:00:19;;;;;;;49.28;27.35;;;0.40;99.90;;;;;;5154675;27;20497;-67
2022/01/11 09:02:46;;;;;;;55.97;28.00;;;0.50;99.90;;;;;;5138275;27;20093;-66
2022/01/11 09:05:13;;;;;;;50.90;28.88;;;0.50;99.90;;;;;;5115773;27;20376;-65
2022/01/11 09:07:38;;;;;;;50.88;26.80;;;0.50;99.90;;;;;;5134454;27;20064;-66
2022/01/11 09:10:07;;;;;;;45.60;26.73;;;0.60;99.90;;;;;;5134328;27;20031;-66
2022/01/11 09:12:33;;;;;;;51.55;28.75;;;0.60;99.90;;;;;;5148536;27;20035;-66
2022/01/11 09:15:04;;;;;;;54.97;29.55;;;0.60;99.90;;;;;;5154369;27;20069;-67
2022/01/11 09:17:30;;;;;;;45.90;24.40;;;0.60;99.90;;;;;;5154831;27;20073;-67
2022/01/11 09:19:55;;;;;;;47.97;28.15;;;0.60;99.90;;;;;;5151370;27;20456;-66
2022/01/11 09:22:21;;;;;;;47.47;27.45;;;0.60;99.90;;;;;;5136370;27;20078;-66
2022/01/11 09:24:47;;;;;;;50.08;27.88;;;0.60;99.90;;;;;;5117181;27;20106;-65
2022/01/11 09:27:14;;;;;;;45.72;26.05;;;0.70;99.90;;;;;;5134658;27;20031;-66
2022/01/11 09:29:40;;;;;;;49.28;27.55;;;0.70;99.90;;;;;;5149182;27;20460;-66
2022/01/11 09:32:07;;;;;;;47.13;25.50;;;0.70;99.90;;;;;;5125504;28;20035;-66
2022/01/11 09:34:33;;;;;;;44.45;25.48;;;0.70;99.90;;;;;;5133820;27;20081;-67
2022/01/11 09:36:59;;;;;;;48.97;27.35;;;0.70;99.90;;;;;;5140465;27;20042;-67
2022/01/11 09:39:28;;;;;;;48.92;27.30;;;0.70;99.90;;;;;;5159060;27;20150;-66
2022/01/11 09:41:53;;;;;;;48.08;27.30;;;0.70;99.90;;;;;;5157500;27;20162;-67
2022/01/11 09:44:20;;;;;;;45.72;27.33;;;0.70;99.90;;;;;;5140069;27;20057;-67
2022/01/11 09:46:46;;;;;;;45.53;26.45;;;0.70;99.90;;;;;;5158820;27;20114;-66
2022/01/11 09:49:12;;;;;;;44.65;25.73;;;0.80;99.90;;;;;;5140378;27;20152;-67
2022/01/11 09:51:38;;;;;;;41.20;24.05;;;0.80;99.90;;;;;;5133992;27;20043;-67
2022/01/11 09:54:05;;;;;;;42.30;23.83;;;0.80;99.90;;;;;;5137576;27;20035;-67
2022/01/11 09:56:37;;;;;;;44.88;25.30;;;0.80;99.90;;;;;;5137707;27;20039;-66
2022/01/11 09:59:04;;;;;;;45.25;25.23;;;0.80;99.90;;;;;;5137551;27;20432;-69
2022/01/11 10:01:29;;;;;;;40.70;24.00;;;0.90;99.90;;;;;;5149113;27;20125;-70
2022/01/11 10:04:05;;;;;;;42.50;25.60;;;0.90;99.90;;;;;;5151528;27;20114;-67
2022/01/11 10:06:37;;;;;;;41.40;25.23;;;0.90;99.90;;;;;;5158404;27;20064;-68
2022/01/11 10:09:18;;;;;;;41.88;24.40;;;0.90;99.90;;;;;;5158225;27;20042;-68
2022/01/11 10:12:07;;;;;;;43.60;24.73;;;0.90;99.90;;;;;;5157806;27;20042;-68
2022/01/11 10:14:36;;;;;;;39.00;23.85;;;1.00;99.90;;;;;;5158155;27;20138;-68
2022/01/11 10:17:20;;;;;;;37.65;23.55;;;1.00;99.90;;;;;;5158491;27;20085;-68
2022/01/11 10:19:59;;;;;;;38.75;23.50;;;1.00;99.90;;;;;;5137371;27;20135;-68
2022/01/11 10:22:25;;;;;;;37.80;24.15;;;1.00;99.90;;;;;;5137776;27;20114;-67
2022/01/11 10:24:53;;;;;;;37.88;23.45;;;1.10;99.90;;;;;;5121890;27;20171;-68
2022/01/11 10:27:22;;;;;;;37.53;23.35;;;1.10;99.90;;;;;;5155848;27;20435;-66
2022/01/11 10:29:51;;;;;;;38.47;22.80;;;1.10;99.90;;;;;;5118974;27;20054;-66
2022/01/11 10:32:27;;;;;;;36.53;22.23;;;1.10;99.90;;;;;;5137350;27;20158;-67
2022/01/11 10:34:56;;;;;;;38.63;21.52;;;1.20;99.90;;;;;;5137003;27;20050;-67
2022/01/11 10:37:42;;;;;;;37.17;21.85;;;1.20;99.90;;;;;;5102291;27;20047;-68
2022/01/11 10:40:15;;;;;;;35.58;21.40;;;1.30;99.90;;;;;;5137175;27;20053;-68
2022/01/11 10:42:50;;;;;;;35.90;21.80;;;1.40;99.90;;;;;;5133278;27;20035;-68
2022/01/11 10:45:17;;;;;;;34.85;21.33;;;1.50;99.90;;;;;;5104574;27;20487;-67
2022/01/11 10:47:47;;;;;;;32.42;20.83;;;1.60;99.90;;;;;;5157400;27;20130;-67
2022/01/11 10:50:18;;;;;;;36.60;20.65;;;1.60;99.90;;;;;;5155289;27;20123;-68
2022/01/11 10:52:45;;;;;;;31.70;19.48;;;1.70;99.90;;;;;;5133487;27;20042;-67
2022/01/11 10:55:20;;;;;;;34.70;21.17;;;1.80;99.90;;;;;;5138386;27;20049;-68
2022/01/11 10:57:57;;;;;;;31.17;19.42;;;1.80;99.90;;;;;;5139053;27;20361;-67
2022/01/11 11:00:33;;;;;;;33.85;20.58;;;1.80;99.90;;;;;;5138773;27;20130;-67
2022/01/11 11:03:05;;;;;;;33.80;20.55;;;1.80;99.90;;;;;;5131529;27;20039;-68
2022/01/11 11:05:38;;;;;;;33.17;19.83;;;1.80;99.90;;;;;;5117294;27;20047;-68
2022/01/11 11:08:15;;;;;;;29.80;18.27;;;1.90;99.90;;;;;;5135993;27;20054;-67
2022/01/11 11:10:43;;;;;;;29.75;18.35;;;1.90;99.90;;;;;;5120546;27;20035;-68
2022/01/11 11:13:16;;;;;;;28.90;18.38;;;2.00;99.90;;;;;;5138967;27;20066;-67
2022/01/11 11:15:41;;;;;;;36.53;19.17;;;2.10;99.90;;;;;;5134714;27;20063;-66
2022/01/11 11:18:31;;;;;;;35.03;19.50;;;2.10;99.90;;;;;;5117596;27;20043;-67
2022/01/11 11:21:19;;;;;;;33.53;19.63;;;2.10;99.90;;;;;;5139230;27;20043;-67
2022/01/11 11:23:48;;;;;;;30.48;19.55;;;2.20;99.90;;;;;;5144225;27;20030;-67
2022/01/11 11:26:14;;;;;;;28.45;18.90;;;2.20;99.90;;;;;;5134953;27;20468;-67
2022/01/11 11:28:40;;;;;;;27.45;18.45;;;2.30;99.90;;;;;;5150789;27;20477;-68
2022/01/11 11:31:06;;;;;;;29.60;18.35;;;2.40;99.90;;;;;;5137253;27;20137;-68
2022/01/11 11:33:39;;;;;;;28.70;17.33;;;2.40;99.90;;;;;;5155826;27;20031;-67
2022/01/11 11:36:06;;;;;;;28.48;17.63;;;2.60;99.90;;;;;;5156070;27;20049;-67
2022/01/11 11:38:36;;;;;;;30.98;16.85;;;2.60;99.90;;;;;;5156695;27;20125;-67
2022/01/11 11:41:02;;;;;;;26.25;17.30;;;2.70;99.90;;;;;;5137731;27;20051;-68
2022/01/11 11:43:29;;;;;;;25.38;16.02;;;2.80;99.90;;;;;;5131632;27;20126;-67
2022/01/11 11:45:55;;;;;;;26.52;16.27;;;2.90;99.90;;;;;;5155686;27;20046;-68
2022/01/11 11:48:23;;;;;;;24.05;15.27;;;3.00;99.90;;;;;;5137895;27;20034;-67
2022/01/11 11:50:55;;;;;;;24.98;15.68;;;3.10;99.90;;;;;;5155977;27;20130;-67
2022/01/11 11:53:26;;;;;;;26.60;16.33;;;3.20;99.90;;;;;;5135672;27;20526;-67
2022/01/11 11:56:19;;;;;;;26.02;15.60;;;3.40;99.90;;;;;;5116649;27;20046;-68
2022/01/11 11:58:57;;;;;;;26.45;16.77;;;3.50;99.90;;;;;;5116757;27;20463;-68
2022/01/11 12:01:42;;;;;;;22.85;15.20;;;3.60;99.90;;;;;;5104580;27;20386;-67
2022/01/11 12:04:36;;;;;;;25.42;16.45;;;3.60;99.90;;;;;;5155517;27;20216;-67
2022/01/11 12:07:32;;;;;;;22.02;14.20;;;3.60;99.90;;;;;;5119386;27;20054;-67
2022/01/11 12:09:59;;;;;;;24.63;14.88;;;3.60;99.90;;;;;;5137319;27;20050;-69
2022/01/11 12:12:45;;;;;;;23.63;14.38;;;3.70;99.90;;;;;;5143821;27;20102;-68
2022/01/11 12:15:22;;;;;;;24.92;15.32;;;3.70;99.90;;;;;;5099242;27;20493;-68
2022/01/11 12:17:57;;;;;;;24.45;15.45;;;3.70;99.90;;;;;;5135014;27;20051;-68
2022/01/11 12:20:51;;;;;;;22.00;13.90;;;3.80;99.90;;;;;;5141917;27;20050;-67
2022/01/11 12:23:38;;;;;;;26.65;14.68;;;3.90;99.90;;;;;;5117946;27;20034;-68
2022/01/11 12:26:39;;;;;;;25.63;15.38;;;3.90;99.90;;;;;;5134250;27;20043;-67
2022/01/11 12:29:05;;;;;;;22.55;14.55;;;4.00;99.90;;;;;;5095255;27;20038;-68
2022/01/11 12:31:59;;;;;;;22.02;14.38;;;4.00;99.90;;;;;;5151136;27;20039;-67
2022/01/11 12:34:46;;;;;;;25.30;14.98;;;4.00;99.90;;;;;;5115898;27;20062;-67
2022/01/11 12:37:21;;;;;;;23.70;14.32;;;4.10;99.90;;;;;;5116344;27;20039;-67
2022/01/11 12:40:16;;;;;;;23.33;14.25;;;4.10;99.90;;;;;;5146875;27;20030;-68